createdAt,value
2022-12-05T00:01:35.211Z,78.48
2022-12-05T00:04:02.739Z,78.57
2022-12-05T00:06:29.908Z,78.59
2022-12-05T00:08:56.824Z,78.17
2022-12-05T00:11:24.600Z,78.80
2022-12-05T00:13:52.026Z,79.12
2022-12-05T00:16:19.364Z,79.07
2022-12-05T00:18:46.152Z,78.75
2022-12-05T00:21:13.994Z,78.47
2022-12-05T00:23:40.622Z,79.12
2022-12-05T00:26:07.304Z,78.95
2022-12-05T00:28:34.232Z,79.31
2022-12-05T00:31:04.805Z,79.39
2022-12-05T00:33:31.428Z,78.85
2022-12-05T00:36:04.905Z,78.37
2022-12-05T00:38:31.382Z,78.72
2022-12-05T00:41:02.197Z,78.52
2022-12-05T00:43:28.683Z,78.36
2022-12-05T00:45:55.266Z,78.77
2022-12-05T00:48:21.851Z,79.10
2022-12-05T00:50:48.428Z,78.97
2022-12-05T00:53:14.922Z,79.35
2022-12-05T00:55:41.477Z,79.21
2022-12-05T00:58:07.973Z,79.52
2022-12-05T01:00:34.557Z,79.42
2022-12-05T01:03:01.151Z,78.42
2022-12-05T01:05:27.784Z,78.72
2022-12-05T01:07:54.368Z,78.91
2022-12-05T01:10:20.986Z,78.47
2022-12-05T01:12:47.518Z,78.90
2022-12-05T01:15:14.104Z,79.34
2022-12-05T01:17:40.649Z,79.25
2022-12-05T01:20:07.641Z,79.18
2022-12-05T01:22:34.173Z,78.29
2022-12-05T01:25:00.760Z,77.83
2022-12-05T01:27:27.284Z,77.12
2022-12-05T01:29:54.531Z,76.99
2022-12-05T01:32:21.554Z,77.28
2022-12-05T01:34:48.191Z,76.97
2022-12-05T01:37:14.781Z,77.66
2022-12-05T01:39:41.430Z,77.17
2022-12-05T01:42:07.946Z,77.10
2022-12-05T01:44:34.557Z,76.74
2022-12-05T01:47:01.161Z,77.22
2022-12-05T01:49:27.710Z,77.01
2022-12-05T01:52:01.614Z,76.75
2022-12-05T01:54:28.291Z,76.54
2022-12-05T01:57:01.719Z,77.03
2022-12-05T01:59:31.848Z,76.72
2022-12-05T02:01:58.529Z,77.00
2022-12-05T02:04:25.050Z,76.87
2022-12-05T02:06:51.615Z,77.69
2022-12-05T02:09:18.148Z,77.45
2022-12-05T02:11:47.589Z,77.69
2022-12-05T02:14:17.128Z,77.65
2022-12-05T02:16:46.620Z,78.09
2022-12-05T02:19:15.959Z,78.08
2022-12-05T02:21:45.335Z,78.42
2022-12-05T02:24:30.766Z,78.20
2022-12-05T02:27:00.663Z,78.33
2022-12-05T02:29:39.118Z,77.92
2022-12-05T02:32:24.632Z,77.90
2022-12-05T02:34:55.095Z,77.98
2022-12-05T02:37:33.002Z,78.47
2022-12-05T02:40:10.691Z,78.57
2022-12-05T02:42:55.962Z,78.58
2022-12-05T02:45:23.370Z,78.72
2022-12-05T02:47:53.602Z,78.15
2022-12-05T02:50:23.939Z,78.00
2022-12-05T02:52:51.174Z,78.12
2022-12-05T02:55:18.003Z,78.34
2022-12-05T02:57:45.813Z,77.91
2022-12-05T03:00:12.627Z,78.21
2022-12-05T03:02:39.279Z,78.77
2022-12-05T03:05:17.627Z,78.50
2022-12-05T03:07:45.176Z,78.75
2022-12-05T03:10:11.744Z,78.66
2022-12-05T03:12:39.882Z,78.48
2022-12-05T03:15:07.690Z,78.39
2022-12-05T03:17:45.082Z,77.52
2022-12-05T03:20:14.914Z,77.91
2022-12-05T03:23:00.931Z,77.73
2022-12-05T03:25:30.402Z,77.21
2022-12-05T03:28:00.018Z,77.29
2022-12-05T03:30:27.575Z,77.86
2022-12-05T03:32:58.294Z,77.69
2022-12-05T03:35:43.702Z,77.99
2022-12-05T03:38:11.697Z,78.12
2022-12-05T03:40:38.129Z,76.83
2022-12-05T03:43:12.893Z,76.78
2022-12-05T03:45:42.145Z,77.56
2022-12-05T03:48:15.681Z,77.20
2022-12-05T03:50:43.170Z,77.21
2022-12-05T03:53:19.520Z,76.64
2022-12-05T03:55:47.391Z,77.18
2022-12-05T03:58:15.717Z,76.90
2022-12-05T04:00:43.162Z,76.95
2022-12-05T04:03:19.465Z,77.40
2022-12-05T04:05:59.373Z,76.72
2022-12-05T04:08:26.911Z,77.02
2022-12-05T04:10:54.524Z,77.76
2022-12-05T04:13:25.452Z,76.81
2022-12-05T04:16:15.338Z,77.27
2022-12-05T04:18:42.950Z,77.67
2022-12-05T04:21:28.323Z,77.85
2022-12-05T04:24:14.109Z,78.26
2022-12-05T04:26:43.361Z,78.29
2022-12-05T04:29:17.767Z,78.51
2022-12-05T04:31:44.406Z,78.44
2022-12-05T04:34:11.889Z,78.64
2022-12-05T04:36:50.567Z,78.76
2022-12-05T04:39:21.399Z,78.82
2022-12-05T04:41:49.668Z,78.92
2022-12-05T04:44:16.613Z,78.85
2022-12-05T04:46:43.831Z,78.66
2022-12-05T04:49:11.270Z,78.32
2022-12-05T04:51:38.006Z,78.75
2022-12-05T04:54:05.903Z,78.81
2022-12-05T04:56:35.091Z,78.92
2022-12-05T04:59:01.641Z,78.71
2022-12-05T05:01:31.297Z,79.03
2022-12-05T05:04:07.998Z,79.00
2022-12-05T05:06:36.627Z,79.04
2022-12-05T05:09:03.128Z,79.23
2022-12-05T05:11:30.795Z,78.94
2022-12-05T05:13:57.342Z,79.14
2022-12-05T05:16:26.952Z,79.13
2022-12-05T05:18:53.568Z,79.26
2022-12-05T05:21:21.114Z,79.20
2022-12-05T05:23:47.771Z,78.94
2022-12-05T05:26:14.578Z,78.95
2022-12-05T05:28:41.115Z,79.02
2022-12-05T05:31:07.819Z,78.22
2022-12-05T05:33:34.681Z,77.46
2022-12-05T05:36:11.464Z,77.07
2022-12-05T05:38:38.609Z,77.24
2022-12-05T05:41:05.307Z,76.40
2022-12-05T05:43:31.853Z,76.84
2022-12-05T05:46:01.384Z,76.48
2022-12-05T05:48:32.283Z,76.58
2022-12-05T05:51:02.584Z,75.83
2022-12-05T05:53:29.165Z,76.79
2022-12-05T05:55:56.418Z,76.74
2022-12-05T05:58:23.409Z,76.10
2022-12-05T06:00:54.039Z,76.00
2022-12-05T06:03:23.860Z,76.72
2022-12-05T06:06:06.820Z,77.00
2022-12-05T06:08:35.471Z,77.47
2022-12-05T06:11:20.212Z,77.50
2022-12-05T06:13:49.895Z,78.29
2022-12-05T06:16:22.030Z,78.54
2022-12-05T06:18:49.951Z,78.35
2022-12-05T06:21:17.253Z,78.45
2022-12-05T06:23:44.521Z,78.87
2022-12-05T06:26:14.553Z,77.94
2022-12-05T06:28:41.490Z,78.21
2022-12-05T06:31:14.358Z,78.17
2022-12-05T06:33:44.374Z,78.22
2022-12-05T06:36:18.175Z,78.19
2022-12-05T06:38:44.770Z,78.49
2022-12-05T06:41:12.416Z,78.22
2022-12-05T06:43:38.990Z,77.61
2022-12-05T06:46:06.510Z,77.25
2022-12-05T06:48:33.175Z,76.08
2022-12-05T06:51:00.458Z,75.75
2022-12-05T06:53:27.285Z,76.33
2022-12-05T06:55:57.760Z,76.44
2022-12-05T06:58:24.522Z,75.91
2022-12-05T07:01:09.742Z,75.69
2022-12-05T07:03:36.278Z,76.31
2022-12-05T07:06:03.315Z,76.71
2022-12-05T07:08:30.021Z,76.39
2022-12-05T07:10:56.630Z,76.80
2022-12-05T07:13:23.214Z,77.53
2022-12-05T07:15:50.027Z,77.25
2022-12-05T07:18:17.343Z,77.24
2022-12-05T07:21:10.585Z,77.54
2022-12-05T07:23:30.958Z,77.80
2022-12-05T07:26:00.493Z,77.33
2022-12-05T07:28:27.095Z,76.89
2022-12-05T07:31:03.211Z,76.74
2022-12-05T07:33:29.791Z,76.14
2022-12-05T07:36:03.028Z,76.74
2022-12-05T07:38:29.614Z,76.41
2022-12-05T07:41:05.221Z,76.97
2022-12-05T07:43:37.941Z,76.92
2022-12-05T07:46:05.266Z,76.76
2022-12-05T07:48:32.051Z,76.83
2022-12-05T07:51:01.561Z,76.22
2022-12-05T07:53:28.382Z,76.06
2022-12-05T07:55:55.036Z,75.66
2022-12-05T07:58:21.598Z,76.33
2022-12-05T08:00:48.188Z,76.42
2022-12-05T08:03:14.745Z,76.49
2022-12-05T08:05:41.273Z,77.28
2022-12-05T08:08:07.966Z,77.23
2022-12-05T08:10:35.159Z,76.77
2022-12-05T08:13:01.695Z,77.54
2022-12-05T08:15:28.276Z,77.00
2022-12-05T08:17:54.783Z,76.71
2022-12-05T08:20:21.327Z,76.17
2022-12-05T08:23:08.233Z,76.09
2022-12-05T08:25:36.743Z,75.75
2022-12-05T08:28:03.280Z,75.83
2022-12-05T08:30:29.815Z,76.31
2022-12-05T08:32:56.408Z,76.15
2022-12-05T08:35:23.040Z,75.54
2022-12-05T08:37:49.610Z,75.76
2022-12-05T08:40:16.213Z,75.74
2022-12-05T08:42:42.737Z,76.21
2022-12-05T08:45:09.746Z,75.74
2022-12-05T08:47:36.269Z,75.43
2022-12-05T08:50:02.814Z,74.56
2022-12-05T08:52:30.033Z,74.28
2022-12-05T08:54:56.915Z,74.49
2022-12-05T08:57:23.698Z,74.45
2022-12-05T08:59:50.187Z,75.06
2022-12-05T09:02:16.814Z,75.01
2022-12-05T09:04:43.538Z,74.63
2022-12-05T09:07:10.101Z,75.10
2022-12-05T09:09:36.704Z,75.38
2022-12-05T09:12:03.355Z,75.45
2022-12-05T09:14:33.180Z,76.25
2022-12-05T09:17:01.094Z,76.43
2022-12-05T09:19:28.644Z,76.08
2022-12-05T09:21:55.550Z,76.53
2022-12-05T09:24:22.567Z,76.05
2022-12-05T09:26:49.128Z,75.37
2022-12-05T09:29:17.956Z,75.21
2022-12-05T09:31:45.071Z,74.99
2022-12-05T09:34:13.476Z,74.41
2022-12-05T09:36:39.992Z,75.07
2022-12-05T09:39:06.912Z,75.27
2022-12-05T09:42:01.221Z,74.97
2022-12-05T09:44:36.686Z,75.42
2022-12-05T09:47:04.495Z,75.45
2022-12-05T09:49:31.063Z,75.26
2022-12-05T09:51:57.652Z,75.04
2022-12-05T09:54:24.721Z,75.59
2022-12-05T09:56:51.731Z,75.13
2022-12-05T09:59:20.467Z,74.73
2022-12-05T10:01:57.868Z,73.92
2022-12-05T10:04:24.453Z,73.65
2022-12-05T10:07:09.520Z,74.03
2022-12-05T10:09:54.750Z,73.98
2022-12-05T10:12:37.968Z,74.52
2022-12-05T10:15:04.521Z,74.65
2022-12-05T10:17:32.605Z,74.28
2022-12-05T10:20:00.443Z,74.87
2022-12-05T10:22:29.084Z,75.57
2022-12-05T10:24:56.757Z,76.23
2022-12-05T10:27:28.987Z,76.85
2022-12-05T10:30:00.218Z,77.25
2022-12-05T10:32:28.878Z,77.72
2022-12-05T10:34:55.704Z,77.92
2022-12-05T10:37:22.916Z,77.99
2022-12-05T10:39:50.153Z,77.94
2022-12-05T10:42:17.773Z,77.48
2022-12-05T10:44:44.623Z,77.33
2022-12-05T10:47:11.189Z,77.54
2022-12-05T10:49:38.226Z,77.30
2022-12-05T10:52:05.568Z,77.51
2022-12-05T10:54:32.895Z,77.33
2022-12-05T10:56:59.473Z,77.34
2022-12-05T10:59:27.149Z,77.05
2022-12-05T11:01:55.272Z,77.45
2022-12-05T11:04:23.315Z,76.75
2022-12-05T11:06:50.595Z,76.76
2022-12-05T11:09:34.091Z,77.13
2022-12-05T11:12:14.922Z,76.70
2022-12-05T11:14:42.970Z,77.23
2022-12-05T11:17:10.063Z,76.88
2022-12-05T11:19:37.629Z,76.43
2022-12-05T11:22:05.903Z,75.99
2022-12-05T11:24:33.462Z,76.05
2022-12-05T11:27:01.338Z,75.83
2022-12-05T11:29:38.516Z,75.85
2022-12-05T11:32:06.391Z,75.82
2022-12-05T11:34:38.433Z,75.68
2022-12-05T11:37:06.902Z,75.97
2022-12-05T11:39:33.624Z,76.17
2022-12-05T11:42:13.249Z,75.90
2022-12-05T11:44:39.867Z,76.05
2022-12-05T11:47:15.488Z,75.69
2022-12-05T11:50:01.714Z,75.52
2022-12-05T11:52:49.588Z,75.16
2022-12-05T11:55:23.128Z,74.96
2022-12-05T11:58:02.330Z,74.09
2022-12-05T12:00:42.660Z,73.21
2022-12-05T12:03:33.108Z,74.22
2022-12-05T12:06:03.315Z,74.21
2022-12-05T12:08:30.554Z,74.00
2022-12-05T12:10:59.662Z,74.37
2022-12-05T12:13:29.335Z,74.16
2022-12-05T12:16:08.757Z,74.37
2022-12-05T12:18:45.226Z,74.19
2022-12-05T12:21:27.622Z,74.60
2022-12-05T12:24:01.334Z,74.82
2022-12-05T12:26:44.472Z,74.45
2022-12-05T12:29:26.231Z,74.90
2022-12-05T12:32:08.017Z,74.35
2022-12-05T12:34:41.422Z,74.43
2022-12-05T12:37:14.191Z,75.05
2022-12-05T12:39:59.358Z,74.92
2022-12-05T12:42:27.872Z,74.75
2022-12-05T12:45:13.207Z,74.61
2022-12-05T12:47:49.130Z,74.55
2022-12-05T12:50:15.762Z,74.67
2022-12-05T12:53:00.852Z,74.87
2022-12-05T12:55:27.316Z,74.35
2022-12-05T12:58:29.214Z,73.66
2022-12-05T13:01:14.865Z,73.42
2022-12-05T13:04:02.859Z,73.47
2022-12-05T13:06:34.080Z,73.39
2022-12-05T13:09:02.838Z,73.80
2022-12-05T13:11:30.061Z,74.31
2022-12-05T13:13:57.038Z,74.66
2022-12-05T13:16:33.922Z,74.11
2022-12-05T13:19:06.093Z,74.56
2022-12-05T13:21:32.800Z,74.03
2022-12-05T13:24:03.460Z,73.69
2022-12-05T13:26:31.417Z,73.37
2022-12-05T13:28:58.473Z,73.73
2022-12-05T13:31:41.358Z,74.23
2022-12-05T13:34:39.711Z,74.36
2022-12-05T13:37:36.358Z,74.45
2022-12-05T13:40:22.083Z,74.84
2022-12-05T13:42:52.039Z,74.62
2022-12-05T13:45:19.568Z,74.05
2022-12-05T13:48:01.634Z,74.34
2022-12-05T13:50:51.726Z,74.56
2022-12-05T13:53:30.661Z,74.58
2022-12-05T13:55:59.091Z,75.09
2022-12-05T13:58:25.678Z,75.37
2022-12-05T14:00:52.451Z,75.03
2022-12-05T14:03:21.967Z,75.17
2022-12-05T14:05:52.276Z,75.17
2022-12-05T14:08:31.511Z,75.66
2022-12-05T14:10:57.979Z,75.95
2022-12-05T14:13:25.401Z,76.37
2022-12-05T14:15:52.197Z,76.02
2022-12-05T14:18:20.816Z,75.55
2022-12-05T14:20:47.329Z,75.97
2022-12-05T14:23:22.717Z,75.81
2022-12-05T14:25:59.621Z,76.63
2022-12-05T14:28:37.156Z,76.78
2022-12-05T14:31:22.508Z,75.98
2022-12-05T14:34:07.890Z,76.17
2022-12-05T14:36:34.511Z,76.68
2022-12-05T14:39:01.108Z,76.72
2022-12-05T14:41:31.428Z,76.52
2022-12-05T14:43:57.940Z,76.73
2022-12-05T14:46:29.219Z,76.70
2022-12-05T14:48:56.311Z,77.05
2022-12-05T14:51:35.113Z,76.85
2022-12-05T14:54:05.198Z,77.20
2022-12-05T14:56:31.865Z,77.18
2022-12-05T14:59:01.380Z,77.28
2022-12-05T15:01:54.397Z,77.17
2022-12-05T15:04:24.221Z,77.22
2022-12-05T15:06:55.007Z,77.16
2022-12-05T15:09:41.830Z,77.41
2022-12-05T15:12:20.410Z,77.81
2022-12-05T15:14:48.451Z,77.67
2022-12-05T15:17:16.534Z,77.71
2022-12-05T15:19:47.650Z,77.73
2022-12-05T15:22:14.586Z,77.75
2022-12-05T15:24:41.239Z,77.55
2022-12-05T15:27:11.627Z,77.50
2022-12-05T15:29:38.710Z,77.64
2022-12-05T15:32:08.324Z,77.67
2022-12-05T15:34:34.834Z,78.17
2022-12-05T15:37:19.977Z,78.10
2022-12-05T15:39:50.523Z,78.21
2022-12-05T15:42:17.017Z,78.15
2022-12-05T15:44:43.564Z,78.44
2022-12-05T15:47:18.540Z,78.41
2022-12-05T15:49:45.057Z,78.47
2022-12-05T15:52:31.951Z,78.17
2022-12-05T15:54:59.643Z,78.02
2022-12-05T15:57:33.431Z,77.85
2022-12-05T16:00:05.222Z,77.51
2022-12-05T16:02:44.227Z,78.02
2022-12-05T16:05:21.323Z,77.71
2022-12-05T16:07:48.396Z,78.26
2022-12-05T16:10:15.620Z,78.00
2022-12-05T16:12:42.147Z,77.99
2022-12-05T16:15:18.855Z,78.28
2022-12-05T16:17:46.370Z,78.54
2022-12-05T16:20:15.994Z,78.87
2022-12-05T16:22:46.051Z,78.93
2022-12-05T16:25:14.014Z,78.77
2022-12-05T16:27:41.020Z,79.16
2022-12-05T16:30:11.790Z,78.95
2022-12-05T16:32:38.914Z,78.99
2022-12-05T16:35:23.558Z,79.04
2022-12-05T16:38:02.275Z,79.15
2022-12-05T16:40:29.039Z,79.19
2022-12-05T16:43:05.685Z,79.74
2022-12-05T16:45:42.532Z,80.35
2022-12-05T16:48:16.512Z,80.43
2022-12-05T16:50:43.388Z,79.80
2022-12-05T16:53:09.903Z,80.20
2022-12-05T16:55:39.744Z,80.46
2022-12-05T16:58:06.818Z,80.30
2022-12-05T17:00:33.394Z,80.14
2022-12-05T17:03:25.861Z,80.16
2022-12-05T17:05:46.537Z,80.38
2022-12-05T17:08:13.475Z,80.18
2022-12-05T17:10:40.144Z,80.27
2022-12-05T17:13:06.745Z,80.09
2022-12-05T17:15:33.332Z,80.06
2022-12-05T17:18:00.096Z,79.96
2022-12-05T17:20:26.920Z,79.62
2022-12-05T17:22:53.692Z,79.97
2022-12-05T17:25:23.369Z,80.12
2022-12-05T17:27:49.907Z,79.99
2022-12-05T17:30:16.560Z,80.07
2022-12-05T17:32:43.917Z,80.20
2022-12-05T17:35:15.339Z,80.60
2022-12-05T17:37:41.902Z,79.95
2022-12-05T17:40:08.920Z,80.51
2022-12-05T17:42:35.465Z,80.25
2022-12-05T17:45:02.357Z,80.39
2022-12-05T17:47:28.878Z,80.17
2022-12-05T17:49:55.917Z,80.03
2022-12-05T17:52:22.909Z,79.97
2022-12-05T17:54:49.553Z,79.85
2022-12-05T17:57:16.109Z,79.33
2022-12-05T17:59:42.713Z,79.70
2022-12-05T18:02:09.871Z,79.24
2022-12-05T18:04:37.060Z,79.13
2022-12-05T18:07:03.582Z,79.10
2022-12-05T18:09:31.057Z,79.56
2022-12-05T18:11:57.692Z,79.51
2022-12-05T18:14:25.831Z,79.93
2022-12-05T18:16:52.380Z,79.89
2022-12-05T18:19:18.967Z,79.73
2022-12-05T18:24:12.990Z,79.55
2022-12-05T18:26:39.535Z,79.81
2022-12-05T18:29:06.039Z,79.58
2022-12-05T18:31:32.691Z,79.40
2022-12-05T18:33:59.338Z,79.44
2022-12-05T18:36:25.969Z,79.67
2022-12-05T18:38:53.972Z,79.40
2022-12-05T18:41:21.046Z,78.02
2022-12-05T18:43:47.602Z,77.22
2022-12-05T18:46:14.241Z,77.64
2022-12-05T18:48:44.878Z,78.15
2022-12-05T18:51:15.184Z,79.24
2022-12-05T18:53:42.705Z,78.81
2022-12-05T18:56:26.022Z,78.68
2022-12-05T18:58:59.199Z,79.16
2022-12-05T19:01:26.410Z,79.76
2022-12-05T19:03:53.171Z,79.84
2022-12-05T19:06:21.175Z,79.57
2022-12-05T19:08:48.105Z,79.84
2022-12-05T19:11:15.671Z,80.11
2022-12-05T19:13:42.701Z,80.18
2022-12-05T19:16:11.412Z,80.14
2022-12-05T19:18:38.103Z,80.37
2022-12-05T19:21:04.736Z,80.22
2022-12-05T19:23:32.398Z,80.14
2022-12-05T19:26:02.810Z,79.79
2022-12-05T19:28:29.299Z,79.87
2022-12-05T19:31:14.578Z,79.94
2022-12-05T19:33:41.905Z,80.48
2022-12-05T19:36:13.579Z,80.85
2022-12-05T19:38:41.022Z,81.50
2022-12-05T19:41:08.424Z,81.52
2022-12-05T19:43:35.310Z,81.24
2022-12-05T19:46:16.324Z,81.08
2022-12-05T19:48:43.144Z,81.30
2022-12-05T19:51:09.698Z,81.13
2022-12-05T19:53:37.498Z,80.73
2022-12-05T19:56:08.934Z,80.98
2022-12-05T19:58:36.168Z,80.68
2022-12-05T20:01:08.865Z,80.50
2022-12-05T20:03:35.865Z,80.66
2022-12-05T20:06:02.419Z,80.57
2022-12-05T20:08:29.002Z,80.52
2022-12-05T20:10:55.593Z,80.55
2022-12-05T20:13:45.872Z,80.44
2022-12-05T20:16:09.789Z,80.60
2022-12-05T20:18:37.701Z,80.58
2022-12-05T20:21:04.823Z,80.74
2022-12-05T20:23:31.806Z,80.77
2022-12-05T20:26:02.574Z,80.67
2022-12-05T20:28:29.458Z,80.68
2022-12-05T20:31:05.426Z,80.52
2022-12-05T20:33:32.078Z,80.78
2022-12-05T20:36:08.948Z,81.02
2022-12-05T20:38:35.941Z,80.64
2022-12-05T20:41:03.681Z,80.65
2022-12-05T20:43:30.311Z,80.59
2022-12-05T20:45:56.964Z,80.56
2022-12-05T20:48:26.144Z,80.62
2022-12-05T20:50:54.126Z,80.75
2022-12-05T20:53:21.833Z,80.35
2022-12-05T20:55:48.459Z,80.63
2022-12-05T20:58:15.052Z,80.46
2022-12-05T21:00:43.730Z,79.99
2022-12-05T21:03:15.623Z,80.15
2022-12-05T21:05:43.691Z,80.19
2022-12-05T21:08:10.512Z,80.28
2022-12-05T21:10:37.485Z,80.23
2022-12-05T21:13:05.185Z,80.07
2022-12-05T21:15:31.739Z,79.86
2022-12-05T21:17:58.235Z,80.15
2022-12-05T21:20:24.939Z,80.16
2022-12-05T21:22:51.675Z,80.10
2022-12-05T21:25:18.416Z,79.90
2022-12-05T21:27:45.270Z,79.19
2022-12-05T21:30:11.947Z,79.90
2022-12-05T21:32:38.605Z,80.05
2022-12-05T21:35:05.716Z,80.00
2022-12-05T21:37:32.234Z,79.92
2022-12-05T21:39:59.083Z,80.30
2022-12-05T21:42:25.693Z,80.05
2022-12-05T21:44:52.198Z,80.61
2022-12-05T21:47:18.771Z,80.94
2022-12-05T21:49:45.452Z,80.90
2022-12-05T21:52:11.918Z,80.78
2022-12-05T21:54:38.478Z,80.38
2022-12-05T21:57:05.014Z,80.47
2022-12-05T21:59:32.722Z,80.56
2022-12-05T22:01:59.559Z,80.66
2022-12-05T22:04:26.173Z,80.63
2022-12-05T22:06:52.696Z,81.20
2022-12-05T22:09:19.280Z,81.30
2022-12-05T22:11:46.021Z,81.27
2022-12-05T22:14:12.534Z,81.27
2022-12-05T22:16:39.140Z,81.07
2022-12-05T22:19:05.736Z,81.52
2022-12-05T22:21:34.337Z,81.35
2022-12-05T22:24:01.057Z,80.92
2022-12-05T22:26:27.545Z,80.85
2022-12-05T22:28:54.707Z,80.78
2022-12-05T22:31:21.702Z,80.88
2022-12-05T22:33:48.556Z,80.98
2022-12-05T22:36:16.274Z,80.85
2022-12-05T22:38:44.033Z,80.99
2022-12-05T22:41:14.647Z,80.80
2022-12-05T22:43:41.653Z,80.74
2022-12-05T22:46:09.139Z,80.89
2022-12-05T22:48:35.867Z,81.23
2022-12-05T22:51:03.035Z,81.45
2022-12-05T22:53:30.569Z,81.02
2022-12-05T22:56:05.458Z,80.77
2022-12-05T22:58:32.058Z,81.07
2022-12-05T23:00:58.879Z,80.94
2022-12-05T23:03:25.603Z,81.00
2022-12-05T23:05:52.414Z,81.37
2022-12-05T23:08:19.044Z,81.37
2022-12-05T23:10:45.617Z,81.11
2022-12-05T23:13:12.384Z,81.01
2022-12-05T23:15:39.159Z,81.10
2022-12-05T23:18:05.773Z,81.27
2022-12-05T23:20:32.813Z,81.25
2022-12-05T23:22:59.415Z,81.31
2022-12-05T23:25:26.009Z,81.00
2022-12-05T23:27:52.647Z,81.35
2022-12-05T23:30:19.255Z,81.14
2022-12-05T23:32:45.785Z,81.32
2022-12-05T23:35:12.440Z,81.29
2022-12-05T23:37:39.706Z,81.33
2022-12-05T23:40:06.510Z,81.22
2022-12-05T23:42:33.008Z,81.10
2022-12-05T23:44:59.583Z,81.42
2022-12-05T23:47:26.149Z,81.66
2022-12-05T23:49:52.710Z,81.56
2022-12-05T23:52:19.352Z,81.96
2022-12-05T23:54:45.952Z,81.89
2022-12-05T23:57:17.399Z,81.83
2022-12-05T23:59:44.450Z,81.82
